Aérodrome :
LOGIN :

S'inscrire | Disclaimer

   EN    FR    IT 

 










Légende :    VFR   VFR Marginal   IFR   IFR Intensif   IFR Très Intensif
Visi : 
Plafond : 
>= 8 km
>= 3000ft
5 à 8 km
1000 à 3000 ft
1500m à 5 km
500 à 1000 ft
800 à 1500m
200 à 500 ft
< 800m
< 200 ft
Symboles :   Orages  Brouillard  Fortes neiges  Fortes précipitations  Vent > 20 kt
SIGMETs :   Divers  Orages  Givrage  Turbulence  Onde Orograph.  Cendres Volcan.






- Altitude de l'aérodrome : 1106 ft


LFSO - Nancy / Ochey

DERNIER METAR :
  • 271300Z AUTO 21022KT 5000 -RA BR OVC009 03/02 Q0991 BECMG 22015G35KT RA BKN010

METARs EXPIRÉS :
  • 271230Z AUTO 20022G32KT 7000 -RA OVC010/// ///TCU 02/02 Q0992 BECMG RA BKN010
  • 271200Z AUTO 19021KT 160V220 6000 -SNRA OVC010/// ///TCU 02/01 Q0993 BECMG 22015G35KT RA BKN010
  • 271130Z AUTO 17015KT 2900 -SN BR OVC008 01/00 Q0994
  • 271100Z AUTO 16014G25KT 120V190 2100 -SN BR OVC005/// ///TCU 01/00 Q0996 BECMG 6000 -SN SCT008 OVC013
  • 271030Z AUTO 15012KT 0900 0650 R20/1100D +SN FG BKN005 OVC009 01/M00 Q0997 BECMG 6000 -SN SCT008 OVC013

TAF TAF LFSO
Valide du 27 à 09h jusqu'au 28 à 09h UTC


270800Z 2709/2809 18013KT 6000 -SN SCT008 OVC013
TEMPO 2709/2712 1500 SN BKN003 OVC008
FM271300 22015G35KT 7000 RA BKN010
FM271600 29025G50KT 9999 BKN008 BKN015
TEMPO 2716/2721 29015G30KT 3000 -SHSNRA BKN009
BECMG 2721/2724 27010KT BKN025
BECMG 2804/2806 21010KT NSC



MET'MAP, la Météo Aéronautique d'un coup d'oeil ! - Copyright ORBIFLY Décembre 2007 - Disclaimer

ORBIFLY MET'MAP TEAM :

Programmation & Développement : Alexandra Zaïnal
Sur une idée originale de : Baudouin d'Aumeries
Assistance à la programmation : Marc-Olivier Méhu
Soutien technique & logistique : Manuel Goepfert

Contact : metmap@orbifly.com




SOURCES & CREDITS :

   NOAA